Time;durP1;ratioP1;P1;durP2;ratioP2;P2;SDS_P1;SDS_P2;PMS_P1;PMS_P2;Temp;Humidity;BMP_temperature;BMP_pressure;BME280_temperature;BME280_humidity;BME280_pressure;Samples;Min_cycle;Max_cycle;Signal;HPM_P1;HPM_P2
2021/05/02 00:00:40;;;;;;;12.07;11.30;;;24.10;73.40;;;;;;3552636;40;20615;-43
2021/05/02 00:03:07;;;;;;;11.73;11.10;;;24.10;73.50;;;;;;3551022;40;20740;-42
2021/05/02 00:05:36;;;;;;;12.13;11.33;;;24.10;73.50;;;;;;3552852;40;20487;-42
2021/05/02 00:08:04;;;;;;;12.87;11.90;;;24.00;73.40;;;;;;3552183;40;20487;-42
2021/05/02 00:10:32;;;;;;;12.80;12.10;;;24.00;73.40;;;;;;3552197;40;20588;-42
2021/05/02 00:13:00;;;;;;;12.05;11.35;;;24.00;73.40;;;;;;3552534;40;20464;-43
2021/05/02 00:15:28;;;;;;;12.37;11.60;;;24.00;73.40;;;;;;3552002;40;20497;-42
2021/05/02 00:17:56;;;;;;;11.47;10.80;;;24.00;73.50;;;;;;3551657;40;20489;-42
2021/05/02 00:20:25;;;;;;;12.40;11.60;;;24.10;73.60;;;;;;3553576;40;20900;-41
2021/05/02 00:22:55;;;;;;;12.33;11.60;;;24.00;73.40;;;;;;3553134;40;20542;-42
2021/05/02 00:25:23;;;;;;;12.87;11.97;;;24.00;73.40;;;;;;3553812;40;20604;-41
2021/05/02 00:27:50;;;;;;;12.40;11.70;;;24.00;73.40;;;;;;3553717;40;20486;-41
2021/05/02 00:30:19;;;;;;;12.70;11.90;;;24.00;73.40;;;;;;3553930;40;20483;-42
2021/05/02 00:32:47;;;;;;;12.73;11.83;;;24.00;73.40;;;;;;3553783;40;20477;-42
2021/05/02 00:35:15;;;;;;;12.80;11.87;;;24.00;73.40;;;;;;3548273;40;20508;-42
2021/05/02 00:37:42;;;;;;;12.68;11.82;;;23.90;73.30;;;;;;3543050;40;20487;-42
2021/05/02 00:40:13;;;;;;;12.63;11.80;;;24.00;73.50;;;;;;3544108;40;20273;-42
2021/05/02 00:42:46;;;;;;;11.80;11.10;;;24.00;73.50;;;;;;3534361;40;20558;-41
2021/05/02 00:45:19;;;;;;;12.30;11.40;;;23.90;73.40;;;;;;3543054;40;20499;-41
2021/05/02 00:47:52;;;;;;;12.50;11.80;;;24.00;73.60;;;;;;3542645;40;20875;-41
2021/05/02 00:50:23;;;;;;;12.18;11.32;;;23.90;74.10;;;;;;3543088;40;20492;-41
2021/05/02 00:53:15;;;;;;;12.20;11.40;;;23.90;73.40;;;;;;3548349;40;20410;-41
2021/05/02 00:55:47;;;;;;;12.77;11.87;;;23.90;73.40;;;;;;3553118;40;20498;-41
2021/05/02 00:58:42;;;;;;;11.30;10.70;;;23.90;73.40;;;;;;3553027;40;20479;-42
2021/05/02 01:01:15;;;;;;;11.70;11.10;;;23.90;73.50;;;;;;3552562;40;21207;-43
2021/05/02 01:03:46;;;;;;;11.67;10.87;;;23.90;73.50;;;;;;3552381;40;20868;-43
2021/05/02 01:06:15;;;;;;;12.53;11.63;;;23.90;73.40;;;;;;3553886;40;20467;-43
2021/05/02 01:08:43;;;;;;;12.07;11.07;;;23.90;73.50;;;;;;3552865;40;20474;-42
2021/05/02 01:11:14;;;;;;;12.00;11.30;;;23.90;73.40;;;;;;3550220;40;20492;-44
2021/05/02 01:13:46;;;;;;;11.90;11.20;;;23.90;73.50;;;;;;3543607;40;20257;-43
2021/05/02 01:16:15;;;;;;;12.40;11.53;;;23.90;73.50;;;;;;3542791;40;20498;-43
2021/05/02 01:18:42;;;;;;;11.67;11.00;;;23.90;73.50;;;;;;3543039;40;20483;-43
2021/05/02 01:21:13;;;;;;;11.70;10.97;;;23.90;73.50;;;;;;3543967;40;20837;-43
2021/05/02 01:23:40;;;;;;;12.23;11.37;;;23.90;73.40;;;;;;3543307;40;20509;-42
2021/05/02 01:26:08;;;;;;;12.00;11.30;;;23.90;73.40;;;;;;3543147;40;21071;-42
2021/05/02 01:28:36;;;;;;;12.33;11.30;;;23.90;73.50;;;;;;3542286;40;20539;-42
2021/05/02 01:31:03;;;;;;;12.47;11.77;;;23.90;73.40;;;;;;3533689;40;20833;-42
2021/05/02 01:33:31;;;;;;;11.97;11.17;;;23.90;73.40;;;;;;3543642;40;20697;-43
2021/05/02 01:35:58;;;;;;;11.63;10.90;;;23.90;73.40;;;;;;3544109;40;20570;-43
2021/05/02 01:38:26;;;;;;;12.30;11.50;;;23.90;73.50;;;;;;3544000;40;20587;-44
2021/05/02 01:40:54;;;;;;;12.33;11.53;;;23.90;73.50;;;;;;3543996;40;20940;-43
2021/05/02 01:43:21;;;;;;;12.20;11.40;;;23.90;73.50;;;;;;3542730;40;20496;-44
2021/05/02 01:45:49;;;;;;;12.47;11.77;;;23.90;73.40;;;;;;3543790;40;20506;-43
2021/05/02 01:48:18;;;;;;;12.23;11.50;;;24.00;73.50;;;;;;3543259;40;20521;-44
2021/05/02 01:51:00;;;;;;;11.43;10.80;;;23.90;73.40;;;;;;3542771;40;20885;-43
2021/05/02 01:53:28;;;;;;;10.73;10.13;;;23.90;73.40;;;;;;3552358;40;20495;-43
2021/05/02 01:55:57;;;;;;;11.90;11.10;;;23.90;73.40;;;;;;3553435;40;20607;-43
2021/05/02 01:58:30;;;;;;;13.00;11.80;;;23.90;73.40;;;;;;3543670;40;20576;-43
2021/05/02 02:00:59;;;;;;;12.60;11.70;;;24.00;73.50;;;;;;3552444;40;20490;-43
2021/05/02 02:03:26;;;;;;;11.87;11.20;;;23.90;73.50;;;;;;3552400;40;20671;-43
2021/05/02 02:05:53;;;;;;;12.10;11.37;;;23.90;73.40;;;;;;3552799;40;20712;-43
2021/05/02 02:08:20;;;;;;;12.60;11.90;;;23.90;73.40;;;;;;3551606;40;20685;-42
2021/05/02 02:10:49;;;;;;;12.30;11.70;;;23.90;73.40;;;;;;3551682;40;20498;-43
2021/05/02 02:13:17;;;;;;;12.07;11.37;;;24.00;73.50;;;;;;3552634;40;20766;-43
2021/05/02 02:15:45;;;;;;;11.00;10.30;;;24.00;73.40;;;;;;3552889;40;20519;-43
2021/05/02 02:18:13;;;;;;;11.80;11.00;;;24.00;73.40;;;;;;3553439;40;20493;-43
2021/05/02 02:20:42;;;;;;;12.20;11.47;;;24.00;73.40;;;;;;3553577;40;20490;-43
2021/05/02 02:23:16;;;;;;;11.63;10.93;;;24.00;73.40;;;;;;3544505;40;20893;-42
2021/05/02 02:25:44;;;;;;;12.13;11.33;;;24.00;73.30;;;;;;3543046;40;21066;-43
2021/05/02 02:28:13;;;;;;;12.07;11.47;;;24.00;73.30;;;;;;3544783;40;20484;-43
2021/05/02 02:30:43;;;;;;;12.67;11.97;;;24.00;73.30;;;;;;3535621;40;20507;-43
2021/05/02 02:33:10;;;;;;;11.33;10.73;;;24.10;73.40;;;;;;3544672;40;20953;-43
2021/05/02 02:35:41;;;;;;;12.53;11.73;;;24.00;73.30;;;;;;3545469;40;20496;-43
2021/05/02 02:38:09;;;;;;;12.17;11.47;;;24.00;73.30;;;;;;3545175;40;20528;-43
2021/05/02 02:40:38;;;;;;;12.30;11.60;;;24.00;73.20;;;;;;3544869;40;21155;-43
2021/05/02 02:43:05;;;;;;;12.57;11.77;;;24.00;73.10;;;;;;3544823;40;20914;-42
2021/05/02 02:45:34;;;;;;;11.23;10.63;;;24.00;73.10;;;;;;3545321;40;20484;-43
2021/05/02 02:48:05;;;;;;;10.80;10.30;;;24.00;73.10;;;;;;3548176;40;20512;-43
2021/05/02 02:50:32;;;;;;;12.30;11.60;;;24.10;73.20;;;;;;3552494;40;20508;-43
2021/05/02 02:53:04;;;;;;;12.80;12.00;;;24.10;73.10;;;;;;3552026;40;20505;-42
2021/05/02 02:55:31;;;;;;;12.27;11.53;;;24.10;73.10;;;;;;3552480;40;20481;-43
2021/05/02 02:57:59;;;;;;;11.60;10.90;;;24.10;73.10;;;;;;3552988;40;20636;-43
2021/05/02 03:00:28;;;;;;;12.03;11.33;;;24.10;73.10;;;;;;3553309;40;20496;-44
2021/05/02 03:02:57;;;;;;;13.03;12.23;;;24.10;73.00;;;;;;3552837;40;20498;-43
2021/05/02 03:05:25;;;;;;;11.67;10.97;;;24.10;73.00;;;;;;3553221;40;20509;-43
2021/05/02 03:07:53;;;;;;;12.50;11.70;;;24.10;73.00;;;;;;3552397;40;20493;-43
2021/05/02 03:10:20;;;;;;;11.80;11.20;;;24.10;73.00;;;;;;3551763;40;20569;-43
2021/05/02 03:12:49;;;;;;;12.43;11.60;;;24.10;73.00;;;;;;3551498;40;20498;-43
2021/05/02 03:15:16;;;;;;;11.73;11.03;;;24.20;73.10;;;;;;3552553;40;20487;-43
2021/05/02 03:17:47;;;;;;;12.10;11.40;;;24.10;73.00;;;;;;3552668;40;20783;-42
2021/05/02 03:20:16;;;;;;;11.90;11.30;;;24.10;73.00;;;;;;3543174;40;20544;-43
2021/05/02 03:22:48;;;;;;;12.43;11.70;;;24.20;73.10;;;;;;3553163;40;20488;-43
2021/05/02 03:25:22;;;;;;;11.60;10.90;;;24.20;73.00;;;;;;3554427;40;20483;-43
2021/05/02 03:27:56;;;;;;;12.30;11.63;;;24.20;72.90;;;;;;3553662;40;20701;-43
2021/05/02 03:30:25;;;;;;;11.93;11.33;;;24.20;72.90;;;;;;3551394;40;20946;-43
2021/05/02 03:32:54;;;;;;;12.20;11.50;;;24.20;72.80;;;;;;3551699;40;20844;-44
2021/05/02 03:35:27;;;;;;;12.27;11.57;;;24.20;72.80;;;;;;3551747;40;20600;-43
2021/05/02 03:38:04;;;;;;;11.25;10.63;;;24.20;72.80;;;;;;3552729;40;20854;-42
2021/05/02 03:40:31;;;;;;;13.50;12.60;;;24.20;72.80;;;;;;3552717;40;20254;-43
2021/05/02 03:42:59;;;;;;;12.30;11.60;;;24.20;72.70;;;;;;3553581;40;20866;-42
2021/05/02 03:45:25;;;;;;;12.00;11.40;;;24.20;72.70;;;;;;3552864;40;20929;-42
2021/05/02 03:47:52;;;;;;;11.47;10.97;;;24.20;72.70;;;;;;3552770;40;20502;-42
2021/05/02 03:50:19;;;;;;;12.63;12.03;;;24.20;72.60;;;;;;3552535;40;20591;-43
2021/05/02 03:52:45;;;;;;;11.87;11.17;;;24.20;72.60;;;;;;3552494;40;20486;-43
2021/05/02 03:55:13;;;;;;;12.17;11.47;;;24.30;72.80;;;;;;3553393;40;20486;-43
2021/05/02 03:57:39;;;;;;;12.00;11.35;;;24.30;72.70;;;;;;3553666;40;20483;-43
2021/05/02 04:00:07;;;;;;;11.77;11.17;;;24.30;72.70;;;;;;3552456;40;20825;-43
2021/05/02 04:02:35;;;;;;;11.93;11.23;;;24.30;72.60;;;;;;3543003;40;20503;-43
2021/05/02 04:05:03;;;;;;;11.75;11.15;;;24.30;72.60;;;;;;3543445;40;20478;-43
2021/05/02 04:07:30;;;;;;;12.07;11.40;;;24.40;72.70;;;;;;3543756;40;20399;-43
2021/05/02 04:09:56;;;;;;;12.33;11.73;;;24.40;72.60;;;;;;3544129;40;20629;-43
2021/05/02 04:12:24;;;;;;;12.73;11.93;;;24.40;73.20;;;;;;3543132;40;20487;-44
2021/05/02 04:14:50;;;;;;;11.90;11.30;;;24.40;72.40;;;;;;3543202;40;20909;-43
2021/05/02 04:17:17;;;;;;;11.90;11.20;;;24.40;72.40;;;;;;3544392;40;20505;-43
2021/05/02 04:19:45;;;;;;;12.73;12.03;;;24.40;72.40;;;;;;3544679;40;20597;-43
2021/05/02 04:22:14;;;;;;;11.10;10.60;;;24.40;72.40;;;;;;3544183;40;20701;-44
2021/05/02 04:24:41;;;;;;;12.80;12.00;;;24.40;72.40;;;;;;3545326;40;20727;-43
2021/05/02 04:27:08;;;;;;;11.87;11.27;;;24.40;72.30;;;;;;3552506;40;20681;-43
2021/05/02 04:29:37;;;;;;;11.77;11.20;;;24.50;72.40;;;;;;3552567;40;20491;-43
2021/05/02 04:32:04;;;;;;;11.90;11.30;;;24.40;72.40;;;;;;3551574;40;20783;-43
2021/05/02 04:34:31;;;;;;;11.93;11.40;;;24.40;72.30;;;;;;3553191;40;20501;-43
2021/05/02 04:36:58;;;;;;;12.40;11.70;;;24.40;72.30;;;;;;3552949;40;20583;-43
2021/05/02 04:39:26;;;;;;;12.13;11.50;;;24.40;72.30;;;;;;3552303;40;20498;-43
2021/05/02 04:41:54;;;;;;;11.60;11.00;;;24.50;72.30;;;;;;3551638;40;20479;-42
2021/05/02 04:44:22;;;;;;;11.68;11.07;;;24.40;72.30;;;;;;3552655;40;20834;-43
2021/05/02 04:46:49;;;;;;;12.27;11.60;;;24.40;72.40;;;;;;3551718;40;20271;-42
2021/05/02 04:49:16;;;;;;;12.07;11.37;;;24.40;72.30;;;;;;3548312;40;20576;-42
2021/05/02 04:51:42;;;;;;;11.33;10.57;;;24.40;72.30;;;;;;3541526;40;21113;-43
2021/05/02 04:54:10;;;;;;;11.65;11.05;;;24.40;72.30;;;;;;3543258;40;20613;-44
2021/05/02 04:56:37;;;;;;;12.53;11.90;;;24.40;72.30;;;;;;3543866;40;20244;-42
2021/05/02 04:59:05;;;;;;;11.70;11.07;;;24.40;72.30;;;;;;3543650;40;20819;-43
2021/05/02 05:01:32;;;;;;;11.03;10.53;;;24.40;72.20;;;;;;3543270;40;20508;-42
2021/05/02 05:04:00;;;;;;;11.60;11.00;;;24.40;72.30;;;;;;3542039;40;20990;-43
2021/05/02 05:06:26;;;;;;;11.70;11.03;;;24.40;72.20;;;;;;3543384;40;20480;-43
2021/05/02 05:08:53;;;;;;;11.37;10.77;;;24.50;72.30;;;;;;3543546;40;20939;-44
2021/05/02 05:11:20;;;;;;;11.00;10.30;;;24.50;72.30;;;;;;3542431;40;21044;-44
2021/05/02 05:13:47;;;;;;;11.93;11.23;;;24.50;72.30;;;;;;3546299;40;20851;-43
2021/05/02 05:16:14;;;;;;;11.03;10.43;;;24.50;72.30;;;;;;3553182;40;20497;-44
2021/05/02 05:18:41;;;;;;;11.65;11.05;;;24.50;72.20;;;;;;3553606;40;20487;-43
2021/05/02 05:21:08;;;;;;;10.90;10.40;;;24.60;72.40;;;;;;3553695;40;20678;-43
2021/05/02 05:23:35;;;;;;;11.63;11.02;;;24.50;72.10;;;;;;3552684;40;20491;-43
2021/05/02 05:26:02;;;;;;;13.20;12.37;;;24.60;72.20;;;;;;3553081;40;20621;-43
2021/05/02 05:28:28;;;;;;;12.00;11.40;;;24.60;72.20;;;;;;3554086;40;20515;-44
2021/05/02 05:30:56;;;;;;;11.93;11.33;;;24.60;72.20;;;;;;3552835;40;20606;-43
2021/05/02 05:33:27;;;;;;;11.60;10.90;;;24.60;72.20;;;;;;3552288;40;20499;-43
2021/05/02 05:35:54;;;;;;;11.13;10.52;;;24.60;72.20;;;;;;3551821;40;20506;-43
2021/05/02 05:38:21;;;;;;;11.93;11.33;;;24.60;72.10;;;;;;3552287;40;20251;-43
2021/05/02 05:40:48;;;;;;;10.67;10.07;;;24.60;72.20;;;;;;3553283;40;20586;-43
2021/05/02 05:43:15;;;;;;;11.10;10.60;;;24.60;72.10;;;;;;3551636;40;20621;-43
2021/05/02 05:45:41;;;;;;;11.77;11.10;;;24.60;72.10;;;;;;3551698;40;20682;-43
2021/05/02 05:48:08;;;;;;;11.27;10.67;;;24.60;72.10;;;;;;3552609;40;20759;-43
2021/05/02 05:50:35;;;;;;;10.47;9.90;;;24.60;72.10;;;;;;3552798;40;20653;-43
2021/05/02 05:53:02;;;;;;;11.77;11.07;;;24.60;72.20;;;;;;3552124;40;20729;-43
2021/05/02 05:55:29;;;;;;;10.93;10.40;;;24.60;72.10;;;;;;3551700;40;20530;-43
2021/05/02 05:57:56;;;;;;;11.77;11.10;;;24.60;72.10;;;;;;3550527;40;20889;-43
2021/05/02 06:00:23;;;;;;;10.97;10.37;;;24.50;72.10;;;;;;3553270;40;20582;-42
2021/05/02 06:02:50;;;;;;;11.97;11.27;;;24.50;72.10;;;;;;3551210;40;20582;-43
2021/05/02 06:05:17;;;;;;;11.50;10.90;;;24.60;72.20;;;;;;3551565;40;20504;-42
2021/05/02 06:07:44;;;;;;;10.87;10.30;;;24.50;72.10;;;;;;3552621;40;20500;-42
2021/05/02 06:10:13;;;;;;;11.47;10.80;;;24.50;72.80;;;;;;3552348;40;20491;-44
2021/05/02 06:12:41;;;;;;;11.30;10.70;;;24.50;72.20;;;;;;3552290;40;20491;-43
2021/05/02 06:15:12;;;;;;;10.77;10.23;;;24.50;72.20;;;;;;3553851;40;20477;-43
2021/05/02 06:17:43;;;;;;;12.10;11.40;;;24.50;72.30;;;;;;3554043;40;20486;-43
2021/05/02 06:20:12;;;;;;;11.13;10.53;;;24.50;72.30;;;;;;3551989;40;20774;-43
2021/05/02 06:22:38;;;;;;;11.10;10.50;;;24.50;72.20;;;;;;3552074;40;20488;-43
2021/05/02 06:25:07;;;;;;;11.23;10.63;;;24.50;72.30;;;;;;3552123;40;20756;-43
2021/05/02 06:27:34;;;;;;;12.17;11.17;;;24.50;72.30;;;;;;3552615;40;20861;-43
2021/05/02 06:30:01;;;;;;;11.87;11.17;;;24.50;72.30;;;;;;3553140;40;20499;-43
2021/05/02 06:32:28;;;;;;;11.43;10.83;;;24.50;72.30;;;;;;3544247;40;20543;-42
2021/05/02 06:34:56;;;;;;;10.83;10.33;;;24.50;72.20;;;;;;3553190;40;20941;-43
2021/05/02 06:37:23;;;;;;;11.67;11.07;;;24.50;72.20;;;;;;3552378;40;20713;-45
2021/05/02 06:39:50;;;;;;;11.50;10.90;;;24.60;72.20;;;;;;3544758;40;20839;-43
2021/05/02 06:42:16;;;;;;;10.30;9.80;;;24.60;72.20;;;;;;3553943;40;20256;-43
2021/05/02 06:44:43;;;;;;;11.00;10.50;;;24.60;72.20;;;;;;3550057;40;20689;-44
2021/05/02 06:47:11;;;;;;;10.50;10.00;;;24.60;72.20;;;;;;3550795;40;20577;-43
2021/05/02 06:49:37;;;;;;;11.03;10.43;;;24.60;72.20;;;;;;3550821;40;20478;-43
2021/05/02 06:52:04;;;;;;;11.70;11.10;;;24.60;72.10;;;;;;3552942;40;20638;-43
2021/05/02 06:54:31;;;;;;;10.63;10.10;;;24.60;72.10;;;;;;3554116;40;20748;-45
2021/05/02 06:56:57;;;;;;;10.97;10.37;;;24.60;72.10;;;;;;3553674;40;20492;-43
2021/05/02 06:59:24;;;;;;;11.80;11.13;;;24.60;72.10;;;;;;3551922;40;20484;-42
2021/05/02 07:01:50;;;;;;;11.00;10.50;;;24.60;72.10;;;;;;3543514;40;20342;-43
2021/05/02 07:04:18;;;;;;;11.70;11.00;;;24.60;72.10;;;;;;3534672;40;20509;-43
2021/05/02 07:06:45;;;;;;;11.38;10.60;;;24.60;72.10;;;;;;3542377;40;20580;-43
2021/05/02 07:09:11;;;;;;;10.70;10.10;;;24.60;72.10;;;;;;3541668;40;20239;-43
2021/05/02 07:11:38;;;;;;;10.47;9.87;;;24.60;72.10;;;;;;3542345;40;20504;-44
2021/05/02 07:14:05;;;;;;;11.67;10.87;;;24.60;72.00;;;;;;3545984;40;20857;-43
2021/05/02 07:16:32;;;;;;;10.82;10.25;;;24.60;72.00;;;;;;3543623;40;20531;-43
2021/05/02 07:18:59;;;;;;;10.57;9.93;;;24.60;72.10;;;;;;3552009;40;20756;-43
2021/05/02 07:21:26;;;;;;;11.83;11.13;;;24.60;72.10;;;;;;3551584;40;20650;-43
2021/05/02 07:23:53;;;;;;;11.27;10.57;;;24.60;72.20;;;;;;3549414;40;20584;-43
2021/05/02 07:26:22;;;;;;;11.90;11.20;;;24.60;72.20;;;;;;3542624;40;20484;-42
2021/05/02 07:28:49;;;;;;;17.77;16.33;;;24.60;72.20;;;;;;3541725;40;20507;-44
2021/05/02 07:31:16;;;;;;;21.40;19.70;;;24.50;67.10;;;;;;3542367;40;20559;-43
2021/05/02 07:33:43;;;;;;;19.67;18.00;;;24.40;59.90;;;;;;3543553;40;20609;-43
2021/05/02 07:36:10;;;;;;;18.83;14.70;;;24.10;59.80;;;;;;3543389;40;20494;-44
2021/05/02 07:38:38;;;;;;;14.43;13.17;;;24.00;63.30;;;;;;3533910;40;20737;-42
2021/05/02 07:41:05;;;;;;;14.93;13.83;;;24.00;66.30;;;;;;3543721;40;20823;-42
2021/05/02 07:43:33;;;;;;;14.13;13.03;;;24.00;68.60;;;;;;3533942;40;20490;-43
2021/05/02 07:46:00;;;;;;;14.80;13.70;;;24.00;68.80;;;;;;3542976;40;20853;-44
2021/05/02 07:48:26;;;;;;;14.00;12.90;;;24.00;69.40;;;;;;3539982;40;20502;-43
2021/05/02 07:50:53;;;;;;;15.13;13.97;;;24.10;69.80;;;;;;3541425;40;20498;-43
2021/05/02 07:53:20;;;;;;;13.77;12.63;;;24.10;70.10;;;;;;3542308;40;20494;-43
2021/05/02 07:55:47;;;;;;;13.47;12.10;;;24.10;70.20;;;;;;3541931;40;20775;-43
2021/05/02 07:58:15;;;;;;;14.77;13.30;;;24.20;70.50;;;;;;3541856;40;20483;-43
2021/05/02 08:00:41;;;;;;;13.83;12.87;;;24.20;70.50;;;;;;3541652;40;20492;-43
2021/05/02 08:03:08;;;;;;;13.57;12.50;;;24.30;70.70;;;;;;3541067;40;20491;-43
2021/05/02 08:05:35;;;;;;;14.07;12.93;;;24.30;70.70;;;;;;3542226;40;20759;-43
2021/05/02 08:08:01;;;;;;;13.60;12.50;;;24.30;70.70;;;;;;3541474;40;20484;-43
2021/05/02 08:10:28;;;;;;;14.23;12.87;;;24.30;70.70;;;;;;3542370;40;20484;-43
2021/05/02 08:12:57;;;;;;;15.17;13.70;;;24.30;70.90;;;;;;3546099;40;20491;-44
2021/05/02 08:15:23;;;;;;;13.93;13.02;;;24.40;71.00;;;;;;3552552;40;20868;-43
2021/05/02 08:17:50;;;;;;;12.83;11.90;;;24.40;71.00;;;;;;3552745;40;20245;-44
2021/05/02 08:20:17;;;;;;;12.67;11.43;;;24.40;71.10;;;;;;3551908;40;20483;-44
2021/05/02 08:22:44;;;;;;;13.23;12.33;;;24.40;71.10;;;;;;3553098;40;20494;-43
2021/05/02 08:25:11;;;;;;;12.87;11.87;;;24.40;71.10;;;;;;3552986;40;20696;-43
2021/05/02 08:27:38;;;;;;;13.47;12.23;;;24.40;71.10;;;;;;3552050;40;20487;-44
2021/05/02 08:30:08;;;;;;;16.03;14.83;;;24.40;71.10;;;;;;3552078;40;20481;-43
2021/05/02 08:32:35;;;;;;;14.67;13.60;;;24.20;62.80;;;;;;3552466;40;20492;-43
2021/05/02 08:35:02;;;;;;;15.40;14.13;;;24.10;67.00;;;;;;3551763;40;20768;-43
2021/05/02 08:37:28;;;;;;;14.37;13.07;;;24.10;69.10;;;;;;3552482;40;20272;-43
2021/05/02 08:39:55;;;;;;;15.83;14.20;;;24.20;70.30;;;;;;3551163;40;20506;-43
2021/05/02 08:42:22;;;;;;;14.33;13.33;;;24.30;71.00;;;;;;3550762;40;20801;-43
2021/05/02 08:44:48;;;;;;;23.43;13.60;;;24.30;71.40;;;;;;3551201;40;20479;-45
2021/05/02 08:47:16;;;;;;;14.00;12.90;;;24.30;71.60;;;;;;3550759;40;20803;-43
2021/05/02 08:49:43;;;;;;;15.20;14.00;;;24.40;71.80;;;;;;3550229;40;20748;-44
2021/05/02 08:52:11;;;;;;;14.70;13.33;;;24.40;71.80;;;;;;3551497;40;20502;-43
2021/05/02 08:54:37;;;;;;;15.73;14.10;;;24.40;71.90;;;;;;3550783;40;20955;-43
2021/05/02 08:57:05;;;;;;;14.70;13.50;;;24.40;71.90;;;;;;3553061;40;20592;-43
2021/05/02 08:59:32;;;;;;;14.30;13.20;;;24.40;71.90;;;;;;3551874;40;20707;-43
2021/05/02 09:01:59;;;;;;;14.60;13.37;;;24.40;72.00;;;;;;3550029;40;20490;-43
2021/05/02 09:04:27;;;;;;;15.00;14.00;;;24.40;72.00;;;;;;3551659;40;20511;-44
2021/05/02 09:06:54;;;;;;;25.40;13.80;;;24.40;72.00;;;;;;3549633;40;20745;-43
2021/05/02 09:09:20;;;;;;;14.53;13.53;;;24.40;72.10;;;;;;3549519;40;20491;-43
2021/05/02 09:11:49;;;;;;;14.80;13.60;;;24.40;72.10;;;;;;3549737;40;20505;-43
2021/05/02 09:14:30;;;;;;;14.13;12.50;;;24.40;72.00;;;;;;3540049;40;20495;-43
2021/05/02 09:16:58;;;;;;;13.90;12.50;;;24.40;72.20;;;;;;3550394;40;20914;-44
2021/05/02 09:19:31;;;;;;;14.43;13.43;;;24.40;72.10;;;;;;3551140;40;20734;-43
2021/05/02 09:22:11;;;;;;;14.63;13.07;;;24.40;72.00;;;;;;3549703;40;20487;-43
2021/05/02 09:24:37;;;;;;;14.60;13.40;;;24.40;72.10;;;;;;3550448;40;20636;-43
2021/05/02 09:27:06;;;;;;;15.00;13.50;;;24.40;72.10;;;;;;3549326;40;20948;-43
2021/05/02 09:29:51;;;;;;;16.10;14.20;;;24.40;72.10;;;;;;3542281;40;20683;-43
2021/05/02 09:32:22;;;;;;;14.00;13.10;;;24.30;72.00;;;;;;3550893;40;20591;-43
2021/05/02 09:34:51;;;;;;;14.37;12.90;;;24.40;72.10;;;;;;3550831;40;20509;-44
2021/05/02 09:37:17;;;;;;;15.10;13.50;;;24.30;72.00;;;;;;3550504;40;20752;-45
2021/05/02 09:39:47;;;;;;;15.30;14.20;;;24.30;72.00;;;;;;3550323;40;20499;-43
2021/05/02 09:42:16;;;;;;;14.47;13.43;;;24.40;72.10;;;;;;3551170;40;20487;-44
2021/05/02 09:44:48;;;;;;;15.67;14.17;;;24.30;72.00;;;;;;3551431;40;20482;-43
2021/05/02 09:47:35;;;;;;;14.43;13.32;;;24.30;72.00;;;;;;3550417;40;20751;-44
2021/05/02 09:50:13;;;;;;;15.10;13.70;;;24.30;72.10;;;;;;3550597;40;20674;-44
2021/05/02 09:52:48;;;;;;;16.10;14.70;;;24.30;72.00;;;;;;3550365;40;20516;-43
2021/05/02 09:55:28;;;;;;;15.02;13.57;;;24.30;72.00;;;;;;3548452;40;20487;-43
2021/05/02 09:57:59;;;;;;;16.40;13.30;;;24.40;72.20;;;;;;3549990;40;20399;-44
2021/05/02 10:00:28;;;;;;;13.00;12.00;;;24.40;72.20;;;;;;3550579;40;20679;-44
2021/05/02 10:02:56;;;;;;;13.57;12.63;;;24.30;72.10;;;;;;3548800;40;20500;-43
2021/05/02 10:05:24;;;;;;;14.03;13.03;;;24.30;72.10;;;;;;3550692;40;20810;-43
2021/05/02 10:07:54;;;;;;;14.77;13.47;;;24.30;72.10;;;;;;3551955;40;20498;-43
2021/05/02 10:10:21;;;;;;;14.87;13.70;;;24.30;72.10;;;;;;3553002;40;20479;-44
2021/05/02 10:12:51;;;;;;;15.80;14.40;;;24.30;72.10;;;;;;3551183;40;20671;-44
2021/05/02 10:15:20;;;;;;;15.10;14.07;;;24.30;72.20;;;;;;3550464;40;20480;-43
2021/05/02 10:17:50;;;;;;;14.30;13.00;;;24.20;72.10;;;;;;3550151;40;20485;-43
2021/05/02 10:20:19;;;;;;;14.00;12.80;;;24.30;72.30;;;;;;3550528;40;20243;-43
2021/05/02 10:22:47;;;;;;;14.10;13.10;;;24.20;72.10;;;;;;3549360;40;20506;-43
2021/05/02 10:25:14;;;;;;;14.53;13.57;;;24.20;72.10;;;;;;3549479;40;20612;-43
2021/05/02 10:27:43;;;;;;;15.10;13.80;;;24.20;72.20;;;;;;3548681;40;20956;-42
2021/05/02 10:30:11;;;;;;;14.90;13.50;;;24.30;72.30;;;;;;3550646;40;20532;-44
2021/05/02 10:32:38;;;;;;;14.63;13.23;;;24.20;72.10;;;;;;3550193;40;20557;-43
2021/05/02 10:35:09;;;;;;;14.45;13.35;;;24.20;72.20;;;;;;3550611;40;21025;-43
2021/05/02 10:37:38;;;;;;;14.13;13.13;;;24.20;72.20;;;;;;3540153;40;20603;-43
2021/05/02 10:40:12;;;;;;;15.57;14.17;;;24.20;72.20;;;;;;3548875;40;20487;-44
2021/05/02 10:42:49;;;;;;;14.73;13.63;;;24.30;72.30;;;;;;3550197;40;20509;-43
2021/05/02 10:45:42;;;;;;;15.03;13.93;;;24.20;72.20;;;;;;3551892;40;20765;-43
2021/05/02 10:48:25;;;;;;;15.53;14.10;;;24.20;72.20;;;;;;3541676;40;20503;-43
2021/05/02 10:50:54;;;;;;;14.97;13.67;;;24.20;72.20;;;;;;3537766;40;20792;-43
2021/05/02 10:53:22;;;;;;;13.97;13.03;;;24.20;72.30;;;;;;3536552;40;20512;-43
2021/05/02 10:55:52;;;;;;;14.35;13.13;;;24.20;72.30;;;;;;3539186;40;20516;-43
2021/05/02 10:58:21;;;;;;;14.00;12.90;;;24.20;72.30;;;;;;3539929;40;20295;-43
2021/05/02 11:00:55;;;;;;;15.77;14.50;;;24.20;73.10;;;;;;3539390;40;20516;-43
2021/05/02 11:03:52;;;;;;;13.70;12.70;;;24.20;72.40;;;;;;3540024;40;20486;-43
2021/05/02 11:06:55;;;;;;;13.32;12.52;;;24.20;72.40;;;;;;3532767;40;20519;-43
2021/05/02 11:09:24;;;;;;;14.17;12.90;;;24.20;72.40;;;;;;3540327;40;20246;-43
2021/05/02 11:11:54;;;;;;;14.18;12.85;;;24.20;72.40;;;;;;3540405;40;20503;-43
2021/05/02 11:14:37;;;;;;;13.60;12.60;;;24.20;72.40;;;;;;3539062;40;20256;-43
2021/05/02 11:17:37;;;;;;;12.40;11.50;;;24.20;72.40;;;;;;3539524;40;20871;-43
2021/05/02 11:20:04;;;;;;;14.40;13.23;;;24.20;72.40;;;;;;3540011;40;20503;-43
2021/05/02 11:22:47;;;;;;;14.70;13.70;;;24.20;72.40;;;;;;3540496;40;20489;-43
2021/05/02 11:25:16;;;;;;;14.13;13.13;;;24.20;73.30;;;;;;3539481;40;20532;-43
2021/05/02 11:28:01;;;;;;;15.10;13.87;;;24.20;72.50;;;;;;3539936;40;20504;-43
2021/05/02 11:30:29;;;;;;;13.37;12.57;;;24.20;72.50;;;;;;3540451;40;20610;-43
2021/05/02 11:32:56;;;;;;;14.63;13.30;;;24.20;72.50;;;;;;3539836;40;20498;-43
2021/05/02 11:35:46;;;;;;;14.90;13.90;;;24.20;72.50;;;;;;3540802;40;20509;-43
2021/05/02 11:38:17;;;;;;;14.67;13.70;;;24.20;72.60;;;;;;3539374;40;20503;-43
2021/05/02 11:40:45;;;;;;;13.80;12.80;;;24.10;72.50;;;;;;3540747;40;20500;-43
2021/05/02 11:43:16;;;;;;;13.60;12.60;;;24.10;72.50;;;;;;3541521;40;20512;-43
2021/05/02 11:45:50;;;;;;;12.60;11.80;;;24.10;72.50;;;;;;3540185;40;20500;-43
2021/05/02 11:48:22;;;;;;;13.20;12.20;;;24.10;72.60;;;;;;3539617;40;20502;-44
2021/05/02 11:50:57;;;;;;;15.17;13.80;;;24.10;73.40;;;;;;3539679;40;20492;-43
2021/05/02 11:53:40;;;;;;;15.47;14.27;;;24.10;72.70;;;;;;3537024;40;20589;-43
2021/05/02 11:56:15;;;;;;;14.13;13.13;;;24.10;72.70;;;;;;3539759;40;20780;-43
2021/05/02 11:58:43;;;;;;;13.60;12.80;;;24.10;72.70;;;;;;3538224;40;20817;-43
2021/05/02 12:01:21;;;;;;;13.70;12.80;;;24.10;72.70;;;;;;3538354;40;20471;-43
2021/05/02 12:03:48;;;;;;;14.57;13.38;;;24.10;72.80;;;;;;3540998;40;20475;-43
2021/05/02 12:06:25;;;;;;;14.00;13.00;;;24.10;72.80;;;;;;3547517;40;20243;-43
2021/05/02 12:08:52;;;;;;;14.30;13.20;;;24.00;72.70;;;;;;3538470;40;20506;-43
2021/05/02 12:11:20;;;;;;;13.90;12.90;;;24.10;72.90;;;;;;3548765;40;20577;-43
2021/05/02 12:13:50;;;;;;;14.70;13.70;;;24.00;72.80;;;;;;3539490;40;20499;-44
2021/05/02 12:16:19;;;;;;;13.57;12.67;;;24.00;72.80;;;;;;3550804;40;20508;-43
2021/05/02 12:18:54;;;;;;;14.53;13.37;;;24.10;72.90;;;;;;3551771;40;20536;-43
2021/05/02 12:21:28;;;;;;;13.70;12.60;;;24.10;72.90;;;;;;3540567;40;20534;-43
2021/05/02 12:24:04;;;;;;;13.83;12.80;;;24.00;72.80;;;;;;3549865;40;20528;-43
2021/05/02 12:26:31;;;;;;;13.13;12.30;;;24.10;72.90;;;;;;3549563;40;20512;-43
2021/05/02 12:29:02;;;;;;;13.80;12.80;;;24.00;72.80;;;;;;3543326;40;20483;-43
2021/05/02 12:31:28;;;;;;;15.00;12.43;;;24.00;72.80;;;;;;3540472;40;20483;-43
2021/05/02 12:33:55;;;;;;;12.83;12.03;;;24.00;72.80;;;;;;3541555;40;20491;-44
2021/05/02 12:36:27;;;;;;;14.43;13.53;;;24.10;72.90;;;;;;3540493;40;20491;-43
2021/05/02 12:39:00;;;;;;;14.40;13.30;;;24.00;72.80;;;;;;3540214;40;20568;-43